createdAt,value
2023-04-14T00:00:33.969Z,98056.26
2023-04-14T00:05:53.682Z,98053.52
2023-04-14T00:10:56.932Z,98055.69
2023-04-14T00:22:25.860Z,98050.75
2023-04-14T00:27:29.759Z,98049.48
2023-04-14T00:32:33.389Z,98050.23
2023-04-14T00:37:36.774Z,98047.70
2023-04-14T00:42:47.654Z,98048.66
2023-04-14T00:48:33.906Z,98049.73
2023-04-14T00:53:37.669Z,98051.41
2023-04-14T00:58:42.288Z,98049.49
2023-04-14T01:03:45.822Z,98037.75
2023-04-14T01:08:50.823Z,98024.15
2023-04-14T01:13:57.405Z,98023.10
2023-04-14T01:19:23.613Z,98026.94
2023-04-14T01:24:45.099Z,98030.67
2023-04-14T01:30:19.225Z,98021.77
2023-04-14T01:35:42.688Z,98008.14
2023-04-14T01:40:51.485Z,98010.85
2023-04-14T01:45:59.368Z,98008.23
2023-04-14T01:51:06.137Z,97995.26
2023-04-14T01:56:13.282Z,97992.05
2023-04-14T02:01:18.203Z,97991.61
2023-04-14T02:06:23.250Z,97999.74
2023-04-14T02:11:28.447Z,97994.86
2023-04-14T02:16:34.101Z,97996.45
2023-04-14T02:21:38.256Z,97989.89
2023-04-14T02:26:48.068Z,97985.98
2023-04-14T02:32:01.081Z,97974.33
2023-04-14T02:37:15.613Z,97960.12
2023-04-14T02:42:22.823Z,97954.54
2023-04-14T02:47:33.298Z,97956.21
2023-04-14T02:52:38.156Z,97959.28
2023-04-14T02:57:41.967Z,97959.21
2023-04-14T03:02:46.713Z,97955.35
2023-04-14T03:07:53.214Z,97952.10
2023-04-14T03:12:58.975Z,97946.46
2023-04-14T03:18:04.263Z,97940.38
2023-04-14T03:23:12.111Z,97933.23
2023-04-14T03:28:23.188Z,97931.45
2023-04-14T03:33:29.272Z,97936.84
2023-04-14T03:38:34.826Z,97938.34
2023-04-14T03:43:38.529Z,97941.88
2023-04-14T03:48:45.952Z,97936.95
2023-04-14T03:53:52.155Z,97931.05
2023-04-14T03:58:57.426Z,97927.80
2023-04-14T04:04:03.212Z,97927.54
2023-04-14T04:09:09.549Z,97925.04
2023-04-14T04:14:19.112Z,97934.55
2023-04-14T04:19:25.456Z,97939.34
2023-04-14T04:24:33.764Z,97949.09
2023-04-14T04:29:37.852Z,97943.58
2023-04-14T04:34:42.525Z,97938.17
2023-04-14T04:39:48.219Z,97943.48
2023-04-14T04:51:06.894Z,97949.95
2023-04-14T04:56:10.162Z,97948.38
2023-04-14T05:01:15.135Z,97940.56
2023-04-14T05:06:18.402Z,97949.77
2023-04-14T05:11:22.199Z,97939.27
2023-04-14T05:16:25.900Z,97932.42
2023-04-14T05:21:29.223Z,97924.41
2023-04-14T05:26:52.027Z,97913.10
2023-04-14T05:31:56.212Z,97911.42
2023-04-14T05:36:59.412Z,97902.08
2023-04-14T05:42:03.021Z,97893.40
2023-04-14T05:47:06.391Z,97885.11
2023-04-14T05:52:09.736Z,97874.23
2023-04-14T05:57:12.981Z,97869.84
2023-04-14T06:02:16.359Z,97867.97
2023-04-14T06:07:19.933Z,97867.77
2023-04-14T06:12:23.406Z,97860.23
2023-04-14T06:17:26.961Z,97857.55
2023-04-14T06:22:30.441Z,97861.23
2023-04-14T06:27:33.685Z,97857.63
2023-04-14T06:32:37.135Z,97865.35
2023-04-14T06:37:40.459Z,97863.11
2023-04-14T06:42:43.988Z,97873.00
2023-04-14T06:47:47.386Z,97869.94
2023-04-14T06:52:50.696Z,97872.15
2023-04-14T06:57:54.628Z,97863.38
2023-04-14T07:02:58.137Z,97858.89
2023-04-14T07:08:01.906Z,97854.14
2023-04-14T07:13:05.221Z,97836.81
2023-04-14T07:18:08.673Z,97825.08
2023-04-14T07:23:12.056Z,97818.36
2023-04-14T07:28:16.083Z,97808.60
2023-04-14T07:33:55.667Z,97805.09
2023-04-14T07:38:59.009Z,97803.20
2023-04-14T07:44:03.430Z,97807.83
2023-04-14T07:49:06.934Z,97809.81
2023-04-14T07:54:11.449Z,97809.48
2023-04-14T07:59:15.237Z,97804.86
2023-04-14T08:04:18.693Z,97804.66
2023-04-14T08:09:22.066Z,97799.42
2023-04-14T08:14:25.562Z,97798.18
2023-04-14T08:19:29.081Z,97788.44
2023-04-14T08:24:32.366Z,97784.02
2023-04-14T08:29:38.762Z,97781.63
2023-04-14T08:35:37.271Z,97770.12
2023-04-14T08:40:09.889Z,97763.16
2023-04-14T08:45:13.556Z,97748.36
2023-04-14T08:50:21.618Z,97744.38
2023-04-14T08:55:26.070Z,97744.11
2023-04-14T09:00:29.681Z,97746.92
2023-04-14T09:05:33.397Z,97747.30
2023-04-14T09:10:38.366Z,97744.36
2023-04-14T09:15:42.389Z,97737.83
2023-04-14T09:20:48.081Z,97739.39
2023-04-14T09:26:13.726Z,97741.48
2023-04-14T09:31:18.637Z,97738.54
2023-04-14T09:37:07.075Z,97730.93
2023-04-14T09:42:10.114Z,97731.47
2023-04-14T09:47:16.355Z,97725.74
2023-04-14T09:52:19.353Z,97725.31
2023-04-14T09:57:26.606Z,97713.63
2023-04-14T10:02:30.943Z,97707.82
2023-04-14T10:07:40.866Z,97705.42
2023-04-14T10:12:45.375Z,97694.93
2023-04-14T10:17:54.754Z,97689.28
2023-04-14T10:22:58.100Z,97681.93
2023-04-14T10:28:01.399Z,97676.23
2023-04-14T10:33:04.648Z,97674.91
2023-04-14T10:38:07.984Z,97670.09
2023-04-14T10:43:13.972Z,97670.38
2023-04-14T10:48:17.683Z,97667.95
2023-04-14T10:53:20.860Z,97655.17
2023-04-14T10:58:29.490Z,97649.42
2023-04-14T11:03:43.869Z,97646.63
2023-04-14T11:08:50.427Z,97639.54
2023-04-14T11:14:13.286Z,97645.13
2023-04-14T11:19:16.806Z,97638.10
2023-04-14T11:24:22.323Z,97628.65
2023-04-14T11:29:25.612Z,97625.99
2023-04-14T11:34:28.954Z,97619.85
2023-04-14T11:39:32.493Z,97618.98
2023-04-14T11:44:36.268Z,97627.15
2023-04-14T11:49:39.971Z,97617.61
2023-04-14T11:54:43.217Z,97612.99
2023-04-14T11:59:47.843Z,97611.77
2023-04-14T12:04:51.862Z,97612.31
2023-04-14T12:09:55.353Z,97604.45
2023-04-14T12:14:59.225Z,97600.91
2023-04-14T12:20:03.242Z,97597.23
2023-04-14T12:25:12.739Z,97589.96
2023-04-14T12:30:21.603Z,97590.44
2023-04-14T12:35:24.948Z,97573.51
2023-04-14T12:40:38.868Z,97563.73
2023-04-14T12:45:42.957Z,97563.80
2023-04-14T12:50:46.467Z,97558.89
2023-04-14T12:56:10.591Z,97552.59
2023-04-14T13:01:19.978Z,97543.34
2023-04-14T13:06:27.610Z,97536.61
2023-04-14T13:11:36.044Z,97530.23
2023-04-14T13:16:39.771Z,97531.75
2023-04-14T13:21:44.562Z,97519.42
2023-04-14T13:26:49.514Z,97517.48
2023-04-14T13:31:53.304Z,97518.23
2023-04-14T13:36:57.366Z,97523.64
2023-04-14T13:42:01.319Z,97521.57
2023-04-14T13:47:06.418Z,97517.77
2023-04-14T13:52:13.145Z,97516.19
2023-04-14T13:57:17.344Z,97511.56
2023-04-14T14:02:21.923Z,97510.45
2023-04-14T14:07:27.001Z,97514.92
2023-04-14T14:12:32.639Z,97511.95
2023-04-14T14:17:37.592Z,97503.23
2023-04-14T14:22:42.088Z,97505.41
2023-04-14T14:27:46.211Z,97507.20
2023-04-14T14:32:51.009Z,97514.04
2023-04-14T14:37:54.876Z,97513.16
2023-04-14T14:43:01.615Z,97509.69
2023-04-14T14:48:06.120Z,97514.23
2023-04-14T14:53:10.066Z,97514.16
2023-04-14T14:58:13.259Z,97514.88
2023-04-14T15:03:17.228Z,97507.23
2023-04-14T15:08:20.341Z,97507.45
2023-04-14T15:13:23.989Z,97507.40
2023-04-14T15:18:27.075Z,97508.88
2023-04-14T15:23:33.054Z,97507.93
2023-04-14T15:28:36.087Z,97513.40
2023-04-14T15:33:39.143Z,97514.75
2023-04-14T15:38:42.254Z,97519.60
2023-04-14T15:43:45.898Z,97519.65
2023-04-14T15:48:48.880Z,97524.80
2023-04-14T15:53:52.498Z,97528.11
2023-04-14T15:58:55.776Z,97525.05
2023-04-14T16:03:59.097Z,97523.16
2023-04-14T16:09:03.571Z,97517.96
2023-04-14T16:14:07.227Z,97515.27
2023-04-14T16:19:10.532Z,97517.02
2023-04-14T16:24:15.109Z,97521.73
2023-04-14T16:29:18.378Z,97519.23
2023-04-14T16:34:21.961Z,97520.21
2023-04-14T16:39:25.279Z,97519.15
2023-04-14T16:44:28.472Z,97518.50
2023-04-14T16:49:32.061Z,97518.82
2023-04-14T16:54:36.912Z,97520.96
2023-04-14T16:59:41.696Z,97516.44
2023-04-14T17:04:45.350Z,97519.45
2023-04-14T17:09:49.929Z,97524.98
2023-04-14T17:14:53.276Z,97531.70
2023-04-14T17:19:57.004Z,97538.48
2023-04-14T17:25:00.616Z,97539.60
2023-04-14T17:30:05.189Z,97539.61
2023-04-14T17:35:09.592Z,97538.73
2023-04-14T17:40:13.882Z,97537.70
2023-04-14T17:45:23.014Z,97541.02
2023-04-14T17:50:26.338Z,97544.60
2023-04-14T17:55:29.504Z,97548.16
2023-04-14T18:00:32.782Z,97553.23
2023-04-14T18:05:36.610Z,97555.20
2023-04-14T18:10:39.825Z,97560.50
2023-04-14T18:15:43.247Z,97566.68
2023-04-14T18:20:50.351Z,97574.86
2023-04-14T18:31:10.013Z,97589.39
2023-04-14T18:36:14.640Z,97590.94
2023-04-14T18:41:18.055Z,97585.83
2023-04-14T18:46:21.838Z,97584.11
2023-04-14T18:51:32.849Z,97591.56
2023-04-14T18:56:36.667Z,97594.73
2023-04-14T19:01:40.720Z,97594.84
2023-04-14T19:06:44.099Z,97593.46
2023-04-14T19:11:48.478Z,97594.58
2023-04-14T19:16:51.889Z,97586.95
2023-04-14T19:21:55.431Z,97586.50
2023-04-14T19:26:58.979Z,97582.26
2023-04-14T19:32:02.730Z,97580.61
2023-04-14T19:37:06.099Z,97580.54
2023-04-14T19:42:09.707Z,97581.34
2023-04-14T19:47:13.004Z,97585.02
2023-04-14T19:52:16.461Z,97589.38
2023-04-14T19:57:22.142Z,97586.06
2023-04-14T20:02:30.415Z,97586.08
2023-04-14T20:07:34.244Z,97591.48
2023-04-14T20:12:37.715Z,97601.77
2023-04-14T20:17:41.008Z,97606.05
2023-04-14T20:22:45.658Z,97601.48
2023-04-14T20:27:49.661Z,97611.86
2023-04-14T20:32:53.379Z,97613.16
2023-04-14T20:42:55.800Z,97595.14
2023-04-14T20:47:59.249Z,97595.21
2023-04-14T20:53:02.748Z,97601.31
2023-04-14T20:58:06.063Z,97617.49
2023-04-14T21:03:10.026Z,97609.16
2023-04-14T21:08:13.869Z,97614.02
2023-04-14T21:15:26.637Z,97629.19
2023-04-14T21:18:42.154Z,97644.00
2023-04-14T21:23:45.599Z,97647.81
2023-04-14T21:28:48.827Z,97655.86
2023-04-14T21:33:52.118Z,97653.75
2023-04-14T21:38:55.455Z,97654.54
2023-04-14T21:43:59.264Z,97649.21
2023-04-14T21:49:03.905Z,97652.48
2023-04-14T21:54:08.400Z,97661.48
2023-04-14T21:59:12.020Z,97655.38
2023-04-14T22:04:25.190Z,97665.96
2023-04-14T22:09:39.686Z,97664.04
2023-04-14T22:14:42.908Z,97653.33
2023-04-14T22:19:46.513Z,97667.53
2023-04-14T22:24:51.771Z,97693.89
2023-04-14T22:29:55.043Z,97686.85
2023-04-14T22:34:58.706Z,97670.83
2023-04-14T22:40:03.423Z,97686.58
2023-04-14T22:45:07.747Z,97701.15
2023-04-14T22:50:11.258Z,97709.81
2023-04-14T22:55:14.486Z,97713.74
2023-04-14T23:00:17.849Z,97713.80
2023-04-14T23:05:21.363Z,97718.59
2023-04-14T23:10:24.898Z,97712.65
2023-04-14T23:15:28.587Z,97706.19
2023-04-14T23:20:32.194Z,97704.51
2023-04-14T23:25:35.437Z,97710.30
2023-04-14T23:30:38.734Z,97715.65
2023-04-14T23:35:42.014Z,97723.88
2023-04-14T23:40:45.596Z,97718.80
2023-04-14T23:45:49.146Z,97705.67
2023-04-14T23:50:58.990Z,97706.18
2023-04-14T23:56:07.129Z,97718.65
